createdAt,value
2018-12-18T00:00:27.399Z,34.13
2018-12-18T00:02:57.552Z,34.40
2018-12-18T00:05:32.092Z,34.70
2018-12-18T00:08:01.596Z,36.57
2018-12-18T00:13:54.774Z,36.17
2018-12-18T00:19:34.050Z,35.20
2018-12-18T00:22:04.507Z,36.27
2018-12-18T00:24:35.513Z,36.13
2018-12-18T00:27:04.994Z,36.20
2018-12-18T00:29:59.260Z,36.57
2018-12-18T00:32:28.519Z,36.43
2018-12-18T00:34:59.536Z,37.33
2018-12-18T00:37:29.973Z,38.00
2018-12-18T00:40:00.947Z,35.80
2018-12-18T00:42:31.113Z,36.00
2018-12-18T00:48:42.028Z,38.67
2018-12-18T00:51:16.119Z,36.80
2018-12-18T01:24:06.101Z,44.83
2018-12-18T01:26:35.411Z,44.90
2018-12-18T01:29:35.651Z,43.67
2018-12-18T01:32:04.898Z,44.03
2018-12-18T01:34:34.063Z,44.13
2018-12-18T01:37:03.273Z,40.03
2018-12-18T01:40:08.501Z,40.53
2018-12-18T01:42:38.533Z,43.20
2018-12-18T01:45:08.556Z,42.00
2018-12-18T01:47:40.142Z,45.57
2018-12-18T01:50:10.979Z,44.20
2018-12-18T01:53:51.469Z,42.33
2018-12-18T01:59:54.222Z,43.17
2018-12-18T02:02:23.430Z,46.30
2018-12-18T02:04:52.538Z,44.23
2018-12-18T02:07:23.457Z,42.77
2018-12-18T02:09:53.314Z,44.90
2018-12-18T02:12:24.105Z,44.20
2018-12-18T02:14:54.384Z,42.50
2018-12-18T02:23:30.626Z,40.87
2018-12-18T02:26:06.604Z,43.43
2018-12-18T02:28:35.716Z,42.77
2018-12-18T02:31:17.712Z,43.07
2018-12-18T02:33:51.184Z,41.60
2018-12-18T02:36:20.782Z,41.30
2018-12-18T02:38:49.938Z,39.60
2018-12-18T02:41:19.002Z,42.97
2018-12-18T02:43:48.361Z,41.50
2018-12-18T02:46:17.392Z,44.00
2018-12-18T02:48:47.102Z,40.07
2018-12-18T02:51:18.652Z,41.57
2018-12-18T02:53:47.984Z,39.77
2018-12-18T02:56:17.004Z,39.80
2018-12-18T02:58:46.085Z,39.00
2018-12-18T03:01:15.200Z,41.13
2018-12-18T03:04:09.644Z,38.40
2018-12-18T03:06:49.962Z,36.87
2018-12-18T03:09:51.010Z,37.37
2018-12-18T03:12:20.256Z,36.87
2018-12-18T03:14:49.272Z,38.60
2018-12-18T03:17:18.455Z,38.97
2018-12-18T03:19:47.438Z,40.40
2018-12-18T03:22:16.467Z,41.23
2018-12-18T03:24:45.628Z,37.27
2018-12-18T03:27:14.640Z,38.50
2018-12-18T03:29:44.991Z,37.30
2018-12-18T03:32:20.301Z,37.87
2018-12-18T03:34:49.360Z,37.13
2018-12-18T03:37:21.310Z,40.07
2018-12-18T03:42:38.548Z,41.80
2018-12-18T03:45:09.040Z,42.20
2018-12-18T03:47:39.194Z,39.70
2018-12-18T03:50:08.531Z,42.57
2018-12-18T03:52:39.418Z,40.50
2018-12-18T03:58:06.652Z,40.27
2018-12-18T04:03:49.468Z,39.27
2018-12-18T04:06:20.373Z,41.30
2018-12-18T04:08:54.536Z,36.10
2018-12-18T04:11:25.858Z,40.77
2018-12-18T04:13:55.090Z,38.60
2018-12-18T04:16:24.317Z,40.30
2018-12-18T04:18:53.341Z,40.03
2018-12-18T04:21:22.363Z,39.97
2018-12-18T04:23:51.379Z,39.73
2018-12-18T04:26:20.399Z,41.83
2018-12-18T04:28:49.617Z,40.57
2018-12-18T04:31:18.674Z,43.13
2018-12-18T04:33:47.814Z,41.30
2018-12-18T04:36:18.329Z,40.70
2018-12-18T04:38:47.483Z,36.80
2018-12-18T04:41:18.529Z,41.77
2018-12-18T04:43:47.985Z,38.40
2018-12-18T04:46:19.034Z,35.27
2018-12-18T04:49:20.685Z,39.60
2018-12-18T04:52:39.974Z,40.80
2018-12-18T04:55:14.025Z,38.60
2018-12-18T04:57:45.360Z,40.30
2018-12-18T05:00:15.485Z,39.40
2018-12-18T05:16:50.498Z,36.98
2018-12-18T05:19:19.698Z,37.60
2018-12-18T05:24:36.494Z,38.98
2018-12-18T05:27:12.860Z,37.90
2018-12-18T05:29:45.266Z,37.83
2018-12-18T05:32:14.930Z,37.83
2018-12-18T05:34:44.742Z,36.20
2018-12-18T05:37:14.202Z,35.10
2018-12-18T05:39:43.274Z,37.63
2018-12-18T05:42:12.445Z,36.17
2018-12-18T05:44:41.626Z,34.73
2018-12-18T05:47:10.722Z,35.83
2018-12-18T05:49:39.843Z,37.97
2018-12-18T05:52:08.886Z,34.73
2018-12-18T05:54:38.032Z,34.53
2018-12-18T05:57:07.194Z,33.87
2018-12-18T05:59:38.131Z,34.70
2018-12-18T06:02:07.754Z,34.70
2018-12-18T06:04:43.107Z,39.13
2018-12-18T06:07:26.217Z,32.30
2018-12-18T06:09:56.946Z,34.50
2018-12-18T06:12:27.928Z,32.40
2018-12-18T06:14:57.227Z,33.00
2018-12-18T06:17:31.485Z,33.00
2018-12-18T06:20:07.207Z,30.57
2018-12-18T06:22:36.411Z,32.77
2018-12-18T06:25:05.738Z,30.03
2018-12-18T06:27:35.101Z,31.80
2018-12-18T06:30:05.063Z,31.23
2018-12-18T06:32:34.638Z,30.90
2018-12-18T06:35:10.256Z,32.07
2018-12-18T06:37:37.275Z,32.57
2018-12-18T06:40:07.332Z,31.23
2018-12-18T06:42:37.451Z,31.40
2018-12-18T06:45:10.937Z,30.17
2018-12-18T06:47:40.069Z,28.30
2018-12-18T06:50:10.385Z,30.60
2018-12-18T06:52:40.530Z,28.93
2018-12-18T06:55:10.535Z,29.23
2018-12-18T06:58:04.389Z,28.87
2018-12-18T07:00:34.273Z,31.47
2018-12-18T07:03:33.363Z,30.03
2018-12-18T07:06:03.711Z,28.80
2018-12-18T07:08:35.490Z,29.67
2018-12-18T07:11:06.257Z,28.80
2018-12-18T07:13:36.903Z,31.10
2018-12-18T07:16:06.637Z,28.93
2018-12-18T07:18:39.401Z,31.10
2018-12-18T07:21:08.658Z,31.07
2018-12-18T07:23:38.736Z,31.17
2018-12-18T07:26:07.956Z,29.50
2018-12-18T07:44:42.568Z,30.97
2018-12-18T07:47:15.027Z,30.00
2018-12-18T07:49:44.904Z,32.80
2018-12-18T07:52:43.716Z,31.20
2018-12-18T07:55:12.938Z,33.07
2018-12-18T07:57:42.193Z,30.50
2018-12-18T08:00:11.710Z,31.03
2018-12-18T08:02:40.860Z,31.00
2018-12-18T08:05:10.222Z,30.90
2018-12-18T08:07:39.839Z,31.17
2018-12-18T08:10:09.235Z,30.20
2018-12-18T08:12:38.524Z,30.70
2018-12-18T08:47:30.803Z,23.20
2018-12-18T08:50:00.516Z,24.90
2018-12-18T08:52:29.629Z,24.93
2018-12-18T08:54:59.224Z,25.37
2018-12-18T08:57:28.369Z,21.63
2018-12-18T08:59:58.067Z,20.97
2018-12-18T09:02:27.929Z,24.33
2018-12-18T09:04:57.166Z,23.50
2018-12-18T09:07:26.386Z,24.73
2018-12-18T09:09:55.651Z,24.10
2018-12-18T09:12:24.766Z,24.73
2018-12-18T09:14:58.908Z,24.23
2018-12-18T09:17:33.350Z,24.37
2018-12-18T09:20:04.159Z,23.40
2018-12-18T09:22:33.608Z,28.50
2018-12-18T09:25:02.634Z,24.77
2018-12-18T09:27:31.758Z,22.40
2018-12-18T09:30:03.311Z,25.17
2018-12-18T09:32:32.446Z,23.50
2018-12-18T09:35:01.585Z,25.17
2018-12-18T09:37:33.985Z,24.03
2018-12-18T09:40:27.388Z,24.83
2018-12-18T09:43:23.969Z,25.57
2018-12-18T09:45:53.098Z,23.67
2018-12-18T09:48:22.397Z,23.97
2018-12-18T09:50:51.692Z,25.27
2018-12-18T09:53:22.654Z,26.73
2018-12-18T09:55:59.612Z,28.17
2018-12-18T10:04:34.680Z,27.60
2018-12-18T10:07:05.406Z,29.00
2018-12-18T10:10:08.267Z,29.57
2018-12-18T10:25:04.871Z,28.93
2018-12-18T10:27:34.422Z,28.00
2018-12-18T10:30:05.859Z,29.30
2018-12-18T10:32:36.231Z,30.60
2018-12-18T10:35:07.862Z,32.23
2018-12-18T11:03:07.925Z,31.07
2018-12-18T11:05:37.026Z,33.13
2018-12-18T11:08:06.157Z,32.00
2018-12-18T11:10:42.711Z,34.30
2018-12-18T11:16:13.058Z,33.80
2018-12-18T11:22:09.046Z,34.37
2018-12-18T11:24:43.111Z,34.47
2018-12-18T11:38:09.591Z,31.42
2018-12-18T11:48:58.213Z,34.70
2018-12-18T11:51:27.265Z,34.20
2018-12-18T11:53:56.456Z,33.93
2018-12-18T11:56:25.650Z,33.40
2018-12-18T11:58:54.699Z,33.80
2018-12-18T12:01:24.037Z,36.37
2018-12-18T12:03:53.243Z,34.20
2018-12-18T12:06:23.090Z,35.80
2018-12-18T12:08:52.619Z,35.37
2018-12-18T12:11:22.467Z,36.80
2018-12-18T12:13:52.160Z,35.73
2018-12-18T12:16:21.557Z,35.37
2018-12-18T12:18:50.834Z,32.70
2018-12-18T12:21:20.297Z,32.40
2018-12-18T12:23:50.350Z,30.40
2018-12-18T12:26:24.947Z,33.90
2018-12-18T12:28:54.882Z,33.93
2018-12-18T12:31:27.405Z,31.43
2018-12-18T12:34:04.009Z,32.53
2018-12-18T12:36:34.075Z,31.37
2018-12-18T12:39:03.981Z,31.33
2018-12-18T12:41:33.451Z,29.37
2018-12-18T12:44:28.005Z,30.13
2018-12-18T12:46:57.713Z,28.13
2018-12-18T12:49:33.153Z,28.73
2018-12-18T12:52:02.569Z,27.27
2018-12-18T12:54:31.818Z,27.37
2018-12-18T12:57:01.241Z,32.47
2018-12-18T12:59:30.524Z,30.40
2018-12-18T13:01:59.923Z,25.67
2018-12-18T13:04:29.154Z,28.13
2018-12-18T13:06:58.526Z,28.30
2018-12-18T13:09:27.924Z,27.27
2018-12-18T13:11:57.270Z,26.77
2018-12-18T13:14:26.534Z,24.83
2018-12-18T13:16:55.576Z,22.50
2018-12-18T13:19:25.445Z,22.17
2018-12-18T13:21:55.150Z,25.10
2018-12-18T13:24:24.754Z,25.50
2018-12-18T13:26:53.969Z,23.03
2018-12-18T13:29:23.551Z,21.03
2018-12-18T13:31:53.319Z,19.27
2018-12-18T13:34:38.946Z,20.50
2018-12-18T13:37:08.647Z,20.70
2018-12-18T13:39:38.011Z,21.23
2018-12-18T13:42:07.250Z,18.93
2018-12-18T13:44:36.552Z,19.10
2018-12-18T13:47:06.816Z,21.27
2018-12-18T13:49:36.442Z,21.70
2018-12-18T13:52:06.002Z,21.00
2018-12-18T13:54:35.520Z,21.90
2018-12-18T13:57:13.200Z,20.37
2018-12-18T13:59:43.822Z,20.93
2018-12-18T14:02:13.727Z,21.17
2018-12-18T14:04:42.840Z,20.90
2018-12-18T14:07:12.138Z,20.30
2018-12-18T14:10:11.064Z,21.33
2018-12-18T14:23:20.182Z,19.92
2018-12-18T14:28:28.279Z,21.15
2018-12-18T14:30:57.426Z,20.97
2018-12-18T14:33:26.669Z,21.70
2018-12-18T14:35:55.853Z,19.73
2018-12-18T14:38:24.983Z,19.00
2018-12-18T14:40:54.245Z,18.73
2018-12-18T14:43:23.448Z,18.93
2018-12-18T14:45:52.634Z,19.80
2018-12-18T14:48:21.739Z,19.67
2018-12-18T14:50:50.835Z,16.37
2018-12-18T14:53:19.931Z,18.90
2018-12-18T14:55:49.141Z,16.47
2018-12-18T14:58:18.532Z,15.77
2018-12-18T15:00:47.667Z,16.70
2018-12-18T15:03:16.922Z,15.90
2018-12-18T15:05:46.760Z,14.77
2018-12-18T15:08:16.106Z,16.20
2018-12-18T15:10:45.265Z,13.47
2018-12-18T15:13:30.791Z,14.70
2018-12-18T15:15:59.929Z,13.67
2018-12-18T15:18:29.182Z,15.80
2018-12-18T15:21:01.939Z,13.50
2018-12-18T15:23:32.344Z,12.50
2018-12-18T15:26:08.093Z,13.70
2018-12-18T15:28:45.930Z,12.80
2018-12-18T15:31:20.505Z,15.67
2018-12-18T15:34:00.198Z,13.60
2018-12-18T15:39:29.928Z,14.07
2018-12-18T15:42:22.240Z,15.10
2018-12-18T15:44:55.907Z,14.83
2018-12-18T15:47:25.278Z,15.57
2018-12-18T15:50:25.150Z,13.70
2018-12-18T15:53:22.416Z,14.10
2018-12-18T15:55:59.009Z,12.67
2018-12-18T15:58:28.920Z,11.50
2018-12-18T16:00:58.171Z,13.23
2018-12-18T16:03:28.135Z,12.23
2018-12-18T16:06:28.424Z,11.20
2018-12-18T16:09:26.240Z,11.80
2018-12-18T16:14:56.848Z,12.57
2018-12-18T16:20:26.370Z,12.77
2018-12-18T16:22:55.522Z,11.27
2018-12-18T16:25:25.366Z,11.20
2018-12-18T16:27:54.682Z,11.80
2018-12-18T16:30:37.719Z,11.00
2018-12-18T16:33:30.241Z,11.07
2018-12-18T16:50:09.036Z,11.00
2018-12-18T17:05:52.004Z,9.25
2018-12-18T17:11:00.241Z,9.93
2018-12-18T17:13:29.319Z,11.10
2018-12-18T17:15:58.419Z,10.10
2018-12-18T17:18:28.260Z,11.13
2018-12-18T17:20:58.403Z,11.13
2018-12-18T17:23:27.443Z,10.33
2018-12-18T17:25:57.146Z,12.07
2018-12-18T17:28:31.231Z,11.60
2018-12-18T17:31:02.335Z,11.37
2018-12-18T17:33:31.426Z,10.60
2018-12-18T17:36:01.099Z,10.73
2018-12-18T17:38:30.268Z,9.93
2018-12-18T17:40:59.563Z,10.77
2018-12-18T17:43:28.716Z,10.00
2018-12-18T17:45:57.847Z,10.30
2018-12-18T17:48:27.198Z,9.87
2018-12-18T17:50:56.243Z,10.13
2018-12-18T17:53:25.368Z,10.60
2018-12-18T17:55:54.442Z,10.23
2018-12-18T17:58:23.718Z,11.17
2018-12-18T18:00:53.179Z,11.00
2018-12-18T18:03:22.261Z,10.83
2018-12-18T18:05:51.638Z,10.13
2018-12-18T18:08:20.859Z,10.70
2018-12-18T18:10:50.242Z,9.70
2018-12-18T18:13:19.270Z,9.53
2018-12-18T18:15:49.629Z,10.03
2018-12-18T18:18:19.422Z,10.50
2018-12-18T18:20:48.688Z,12.20
2018-12-18T18:23:17.916Z,10.47
2018-12-18T18:25:47.248Z,10.80
2018-12-18T18:28:16.538Z,11.70
2018-12-18T18:30:45.530Z,10.10
2018-12-18T18:33:14.802Z,11.70
2018-12-18T18:35:44.444Z,9.10
2018-12-18T18:38:14.365Z,9.60
2018-12-18T18:40:43.722Z,9.23
2018-12-18T18:43:12.863Z,9.60
2018-12-18T18:45:41.927Z,9.90
2018-12-18T18:48:10.964Z,10.10
2018-12-18T18:50:39.964Z,8.90
2018-12-18T18:53:09.279Z,9.30
2018-12-18T18:55:38.367Z,10.03
2018-12-18T18:58:07.475Z,9.70
2018-12-18T19:00:36.494Z,10.77
2018-12-18T19:03:05.668Z,9.60
2018-12-18T19:05:34.791Z,9.70
2018-12-18T19:08:04.940Z,9.10
2018-12-18T19:10:34.109Z,9.20
2018-12-18T19:13:03.245Z,10.80
2018-12-18T19:15:32.534Z,10.70
2018-12-18T19:18:01.792Z,10.17
2018-12-18T19:20:31.154Z,11.67
2018-12-18T19:23:00.332Z,10.10
2018-12-18T19:25:29.725Z,11.07
2018-12-18T19:27:59.150Z,9.67
2018-12-18T19:30:29.369Z,10.93
2018-12-18T19:33:01.160Z,10.47
2018-12-18T19:35:31.299Z,10.73
2018-12-18T19:38:03.407Z,9.87
2018-12-18T19:40:33.358Z,9.43
2018-12-18T19:43:03.431Z,10.60
2018-12-18T19:45:33.073Z,11.70
2018-12-18T19:48:02.923Z,11.03
2018-12-18T19:50:33.879Z,10.00
2018-12-18T19:53:03.929Z,11.40
2018-12-18T19:55:33.762Z,11.57
2018-12-18T19:58:03.299Z,13.00
2018-12-18T20:00:33.028Z,10.50
2018-12-18T20:03:02.459Z,9.50
2018-12-18T20:05:31.921Z,10.80
2018-12-18T20:08:01.250Z,11.43
2018-12-18T20:10:31.150Z,11.87
2018-12-18T20:13:04.666Z,12.57
2018-12-18T20:15:34.135Z,11.60
2018-12-18T20:18:03.495Z,12.50
2018-12-18T20:20:32.839Z,12.20
2018-12-18T20:23:02.090Z,13.80
2018-12-18T20:25:31.845Z,12.60
2018-12-18T20:28:01.622Z,11.50
2018-12-18T20:30:30.929Z,12.40
2018-12-18T20:33:00.149Z,12.77
2018-12-18T20:35:29.498Z,12.57
2018-12-18T20:37:58.739Z,12.07
2018-12-18T20:40:28.055Z,14.30
2018-12-18T20:42:57.835Z,13.97
2018-12-18T20:45:27.074Z,13.83
2018-12-18T20:47:56.257Z,14.40
2018-12-18T20:50:25.882Z,13.73
2018-12-18T20:52:55.665Z,15.70
2018-12-18T20:55:24.894Z,14.63
2018-12-18T20:57:54.291Z,14.87
2018-12-18T21:00:23.539Z,13.40
2018-12-18T21:02:52.711Z,16.20
2018-12-18T21:05:22.043Z,15.97
2018-12-18T21:07:52.419Z,15.80
2018-12-18T21:10:21.858Z,14.80
2018-12-18T21:12:51.265Z,16.47
2018-12-18T21:15:20.515Z,15.30
2018-12-18T21:17:50.001Z,15.67
2018-12-18T21:20:19.445Z,15.70
2018-12-18T21:22:48.819Z,15.00
2018-12-18T21:25:19.247Z,17.57
2018-12-18T21:27:49.006Z,13.30
2018-12-18T21:30:18.377Z,14.47
2018-12-18T21:32:47.435Z,14.80
2018-12-18T21:35:17.025Z,15.00
2018-12-18T21:37:46.075Z,14.40
2018-12-18T21:40:15.273Z,13.70
2018-12-18T21:42:44.394Z,14.27
2018-12-18T21:45:13.506Z,11.77
2018-12-18T21:47:42.603Z,13.20
2018-12-18T21:50:12.685Z,13.17
2018-12-18T21:52:42.125Z,11.87
2018-12-18T21:55:12.013Z,11.30
2018-12-18T21:57:41.301Z,12.27
2018-12-18T22:00:13.661Z,12.03
2018-12-18T22:02:43.831Z,11.03
2018-12-18T22:05:13.583Z,12.03
2018-12-18T22:07:42.972Z,12.40
2018-12-18T22:10:12.043Z,10.57
2018-12-18T22:12:42.267Z,12.67
2018-12-18T22:15:11.420Z,12.30
2018-12-18T22:17:40.546Z,13.03
2018-12-18T22:20:09.636Z,12.50
2018-12-18T22:22:38.755Z,12.33
2018-12-18T22:25:08.081Z,13.20
2018-12-18T22:27:37.197Z,11.77
2018-12-18T22:30:08.287Z,11.53
2018-12-18T22:32:43.916Z,10.30
2018-12-18T22:35:13.291Z,10.67
2018-12-18T22:38:35.187Z,10.20
2018-12-18T22:41:04.522Z,10.43
2018-12-18T22:43:33.722Z,11.07
2018-12-18T22:46:02.943Z,11.20
2018-12-18T22:48:32.035Z,11.27
2018-12-18T22:51:02.017Z,12.23
2018-12-18T22:53:31.247Z,10.30
2018-12-18T22:56:00.275Z,10.97
2018-12-18T22:58:29.442Z,11.47
2018-12-18T23:01:05.395Z,10.17
2018-12-18T23:03:34.451Z,12.17
2018-12-18T23:06:03.841Z,11.43
2018-12-18T23:08:33.317Z,12.60
2018-12-18T23:11:03.280Z,11.73
2018-12-18T23:13:32.500Z,12.63
2018-12-18T23:16:01.529Z,12.50
2018-12-18T23:18:30.564Z,13.57
2018-12-18T23:20:59.576Z,13.87
2018-12-18T23:23:28.652Z,13.40
2018-12-18T23:25:57.898Z,12.33
2018-12-18T23:28:27.304Z,13.67
2018-12-18T23:30:57.004Z,14.70
2018-12-18T23:33:26.146Z,14.00
2018-12-18T23:35:55.332Z,15.00
2018-12-18T23:38:24.535Z,15.57
2018-12-18T23:40:53.818Z,16.80
2018-12-18T23:43:22.946Z,16.10
2018-12-18T23:45:51.972Z,17.73
2018-12-18T23:48:21.180Z,17.70
2018-12-18T23:50:50.402Z,16.80
2018-12-18T23:53:19.580Z,17.50
2018-12-18T23:55:48.640Z,16.73
2018-12-18T23:58:17.764Z,18.30
